createdAt,value
2017-10-23T00:01:03.177Z,9.30
2017-10-23T00:03:31.271Z,9.40
2017-10-23T00:05:59.339Z,9.40
2017-10-23T00:08:27.408Z,9.40
2017-10-23T00:10:55.512Z,9.40
2017-10-23T00:13:23.610Z,9.50
2017-10-23T00:15:51.692Z,9.50
2017-10-23T00:18:20.533Z,9.50
2017-10-23T00:20:48.626Z,9.40
2017-10-23T00:23:16.705Z,9.40
2017-10-23T00:25:44.855Z,9.40
2017-10-23T00:28:12.925Z,9.40
2017-10-23T00:30:41.005Z,9.20
2017-10-23T00:33:09.098Z,9.30
2017-10-23T00:35:37.947Z,9.60
2017-10-23T00:38:06.052Z,9.60
2017-10-23T00:43:03.492Z,9.70
2017-10-23T00:45:31.588Z,9.30
2017-10-23T00:47:59.659Z,9.20
2017-10-23T00:50:27.771Z,9.00
2017-10-23T00:52:56.239Z,8.90
2017-10-23T00:55:25.124Z,8.90
2017-10-23T00:57:54.386Z,8.90
2017-10-23T01:00:22.474Z,8.80
2017-10-23T01:02:52.063Z,8.90
2017-10-23T01:05:20.159Z,9.10
2017-10-23T01:10:17.612Z,9.00
2017-10-23T01:12:45.711Z,9.10
2017-10-23T01:15:13.811Z,8.80
2017-10-23T01:17:42.302Z,8.60
2017-10-23T01:22:39.732Z,8.60
2017-10-23T01:25:09.348Z,8.50
2017-10-23T01:27:38.943Z,8.50
2017-10-23T01:32:36.401Z,8.30
2017-10-23T01:35:04.482Z,8.30
2017-10-23T01:37:32.584Z,8.30
2017-10-23T01:40:01.434Z,8.20
2017-10-23T01:42:29.532Z,8.20
2017-10-23T01:44:57.623Z,8.20
2017-10-23T01:49:55.086Z,8.30
2017-10-23T01:52:23.171Z,8.30
2017-10-23T01:54:52.392Z,8.20
2017-10-23T01:57:20.492Z,8.30
2017-10-23T01:59:48.559Z,8.30
2017-10-23T02:02:16.668Z,8.40
2017-10-23T02:04:45.135Z,8.40
2017-10-23T02:07:13.607Z,8.50
2017-10-23T02:09:41.711Z,8.40
2017-10-23T02:12:09.797Z,8.30
2017-10-23T02:14:39.397Z,8.40
2017-10-23T02:17:08.607Z,8.30
2017-10-23T02:19:36.712Z,8.10
2017-10-23T02:22:05.571Z,8.10
2017-10-23T02:29:33.883Z,8.20
2017-10-23T02:32:03.108Z,8.20
2017-10-23T02:34:31.183Z,8.20
2017-10-23T02:36:59.274Z,8.20
2017-10-23T02:39:27.351Z,8.20
2017-10-23T02:41:56.954Z,8.10
2017-10-23T02:46:54.406Z,8.00
2017-10-23T02:49:22.879Z,8.10
2017-10-23T02:54:20.312Z,8.10
2017-10-23T02:56:48.395Z,8.10
2017-10-23T03:01:46.195Z,8.10
2017-10-23T03:06:43.636Z,8.00
2017-10-23T03:09:11.713Z,8.00
2017-10-23T03:11:39.824Z,8.00
2017-10-23T03:14:07.899Z,8.20
2017-10-23T03:16:35.972Z,8.30
2017-10-23T03:19:04.090Z,8.20
2017-10-23T03:21:32.177Z,8.20
2017-10-23T03:24:01.039Z,8.20
2017-10-23T03:26:29.160Z,8.40
2017-10-23T03:28:58.003Z,8.40
2017-10-23T03:31:26.075Z,8.40
2017-10-23T03:33:54.581Z,8.40
2017-10-23T03:36:22.658Z,8.40
2017-10-23T03:38:50.753Z,8.50
2017-10-23T03:41:19.974Z,8.30
2017-10-23T03:43:48.075Z,8.40
2017-10-23T03:46:16.160Z,8.50
2017-10-23T03:48:44.239Z,8.40
2017-10-23T03:53:41.688Z,8.40
2017-10-23T03:56:09.775Z,8.30
2017-10-23T03:58:37.864Z,8.40
2017-10-23T04:01:05.947Z,8.40
2017-10-23T04:03:34.447Z,8.40
2017-10-23T04:06:03.287Z,8.40
2017-10-23T04:08:31.363Z,8.50
2017-10-23T04:10:59.458Z,8.30
2017-10-23T04:13:27.544Z,8.30
2017-10-23T04:15:56.783Z,8.30
2017-10-23T04:18:24.855Z,8.30
2017-10-23T04:20:52.942Z,8.30
2017-10-23T04:23:21.047Z,8.20
2017-10-23T04:25:49.512Z,8.30
2017-10-23T04:28:17.591Z,8.30
2017-10-23T04:30:45.684Z,8.20
2017-10-23T04:33:14.523Z,8.20
2017-10-23T04:35:42.631Z,8.20
2017-10-23T04:38:10.726Z,8.20
2017-10-23T04:40:39.294Z,8.20
2017-10-23T04:43:07.354Z,8.20
2017-10-23T04:45:35.437Z,8.20
2017-10-23T04:48:03.556Z,8.30
2017-10-23T04:53:00.986Z,8.30
2017-10-23T04:57:58.438Z,8.30
2017-10-23T05:00:26.539Z,8.30
2017-10-23T05:02:55.383Z,8.30
2017-10-23T05:05:24.239Z,8.30
2017-10-23T05:10:21.685Z,8.30
2017-10-23T05:12:49.767Z,8.40
2017-10-23T05:15:19.375Z,8.70
2017-10-23T05:17:48.215Z,8.90
2017-10-23T05:20:16.291Z,9.00
2017-10-23T05:22:44.398Z,8.90
2017-10-23T05:25:12.475Z,8.80
2017-10-23T05:27:40.551Z,8.90
2017-10-23T05:30:09.040Z,9.10
2017-10-23T05:32:37.904Z,9.40
2017-10-23T05:35:08.943Z,9.70
2017-10-23T05:37:37.812Z,10.00
2017-10-23T05:40:07.029Z,10.00
2017-10-23T05:42:35.141Z,9.80
2017-10-23T05:45:04.737Z,9.80
2017-10-23T05:47:33.979Z,9.80
2017-10-23T05:50:02.062Z,9.90
2017-10-23T05:52:30.552Z,10.00
2017-10-23T05:54:58.654Z,10.20
2017-10-23T05:57:26.759Z,10.30
2017-10-23T05:59:54.848Z,10.10
2017-10-23T06:02:22.955Z,10.00
2017-10-23T06:04:51.050Z,10.00
2017-10-23T06:07:19.927Z,10.00
2017-10-23T06:09:48.015Z,10.00
2017-10-23T06:12:16.875Z,10.10
2017-10-23T06:14:44.980Z,10.20
2017-10-23T06:17:13.852Z,10.20
2017-10-23T06:19:41.959Z,10.10
2017-10-23T06:22:10.051Z,10.00
2017-10-23T06:24:38.578Z,10.00
2017-10-23T06:29:36.441Z,10.00
2017-10-23T06:32:04.523Z,9.80
2017-10-23T06:34:32.600Z,9.60
2017-10-23T06:37:02.212Z,9.80
2017-10-23T06:44:30.539Z,9.90
2017-10-23T06:46:58.611Z,9.80
2017-10-23T06:49:26.725Z,9.90
2017-10-23T06:51:54.809Z,9.80
2017-10-23T06:54:23.647Z,9.90
2017-10-23T06:56:52.887Z,9.90
2017-10-23T06:59:20.979Z,10.10
2017-10-23T07:04:20.019Z,10.00
2017-10-23T07:06:48.467Z,10.00
2017-10-23T07:09:16.547Z,10.10
2017-10-23T07:11:44.651Z,10.00
2017-10-23T07:14:12.743Z,10.00
2017-10-23T07:16:41.595Z,10.00
2017-10-23T07:19:11.176Z,9.90
2017-10-23T07:21:39.275Z,10.00
2017-10-23T07:24:07.351Z,10.00
2017-10-23T07:26:35.806Z,10.10
2017-10-23T07:29:04.620Z,10.10
2017-10-23T07:31:32.719Z,10.20
2017-10-23T07:34:01.195Z,10.30
2017-10-23T07:36:29.684Z,10.40
2017-10-23T07:38:58.163Z,10.40
2017-10-23T07:41:27.422Z,10.50
2017-10-23T07:43:55.520Z,10.40
2017-10-23T07:46:23.596Z,10.50
2017-10-23T07:48:51.699Z,10.60
2017-10-23T07:51:19.787Z,10.50
2017-10-23T07:53:48.653Z,10.70
2017-10-23T07:56:17.500Z,10.60
2017-10-23T07:58:46.743Z,10.50
2017-10-23T08:01:15.596Z,10.80
2017-10-23T08:03:43.691Z,10.90
2017-10-23T08:06:12.535Z,10.90
2017-10-23T08:08:41.399Z,10.90
2017-10-23T08:11:09.479Z,11.00
2017-10-23T08:13:38.340Z,11.10
2017-10-23T08:16:07.187Z,11.10
2017-10-23T08:18:35.295Z,11.10
2017-10-23T08:21:04.891Z,11.10
2017-10-23T08:23:33.767Z,11.10
2017-10-23T08:26:02.632Z,11.00
2017-10-23T08:28:30.731Z,11.10
2017-10-23T08:30:58.840Z,11.00
2017-10-23T08:35:56.312Z,11.00
2017-10-23T08:40:54.144Z,10.90
2017-10-23T08:43:23.388Z,11.10
2017-10-23T08:48:20.839Z,11.20
2017-10-23T08:50:48.923Z,11.40
2017-10-23T08:55:46.371Z,11.20
2017-10-23T08:58:14.467Z,11.30
2017-10-23T09:00:43.695Z,11.50
2017-10-23T09:03:12.568Z,11.60
2017-10-23T09:05:40.655Z,11.60
2017-10-23T09:08:09.564Z,11.70
2017-10-23T09:10:38.068Z,11.90
2017-10-23T09:13:06.151Z,12.00
2017-10-23T09:15:35.019Z,12.20
2017-10-23T09:18:03.112Z,12.40
2017-10-23T09:23:00.952Z,12.40
2017-10-23T09:25:29.847Z,12.20
2017-10-23T09:27:58.691Z,12.30
2017-10-23T09:30:26.783Z,12.10
2017-10-23T09:32:56.403Z,12.20
2017-10-23T09:35:25.991Z,12.20
2017-10-23T09:37:54.092Z,12.20
2017-10-23T09:40:23.706Z,12.10
2017-10-23T09:42:52.556Z,12.20
2017-10-23T09:45:21.055Z,12.40
2017-10-23T09:47:49.145Z,12.50
2017-10-23T09:50:18.018Z,12.50
2017-10-23T09:52:46.513Z,12.90
2017-10-23T09:55:15.395Z,12.90
2017-10-23T09:57:44.251Z,13.40
2017-10-23T10:00:12.336Z,13.50
2017-10-23T10:02:40.447Z,13.80
2017-10-23T10:05:08.933Z,13.80
2017-10-23T10:07:37.011Z,14.20
2017-10-23T10:10:05.120Z,14.50
2017-10-23T10:12:33.225Z,14.40
2017-10-23T10:15:01.328Z,14.60
2017-10-23T10:17:29.411Z,14.60
2017-10-23T10:19:57.536Z,14.40
2017-10-23T10:22:25.619Z,14.40
2017-10-23T10:24:54.856Z,14.30
2017-10-23T10:27:23.351Z,14.10
2017-10-23T10:29:51.434Z,13.90
2017-10-23T10:32:19.539Z,14.00
2017-10-23T10:34:47.625Z,13.80
2017-10-23T10:39:45.060Z,13.70
2017-10-23T10:42:13.907Z,13.70
2017-10-23T10:44:42.040Z,13.60
2017-10-23T10:47:10.871Z,13.70
2017-10-23T10:49:38.966Z,13.60
2017-10-23T10:52:07.064Z,13.40
2017-10-23T10:54:35.170Z,13.40
2017-10-23T10:57:04.024Z,13.30
2017-10-23T10:59:32.127Z,13.40
2017-10-23T11:02:01.000Z,13.30
2017-10-23T11:04:29.092Z,13.40
2017-10-23T11:06:58.336Z,13.60
2017-10-23T11:09:26.439Z,14.80
2017-10-23T11:11:55.679Z,14.70
2017-10-23T11:14:25.286Z,15.20
2017-10-23T11:16:53.399Z,14.50
2017-10-23T11:19:22.631Z,15.00
2017-10-23T11:21:51.116Z,15.00
2017-10-23T11:26:48.608Z,16.00
2017-10-23T11:29:17.454Z,16.50
2017-10-23T11:31:45.558Z,15.80
2017-10-23T11:34:14.404Z,14.80
2017-10-23T11:36:43.288Z,14.60
2017-10-23T11:41:41.507Z,13.50
2017-10-23T11:44:09.604Z,13.30
2017-10-23T11:46:38.075Z,13.20
2017-10-23T11:49:06.184Z,13.20
2017-10-23T11:51:34.290Z,13.20
2017-10-23T11:54:03.513Z,13.20
2017-10-23T11:56:32.012Z,13.20
2017-10-23T11:59:01.279Z,13.30
2017-10-23T12:03:58.737Z,13.20
2017-10-23T12:06:26.850Z,13.00
2017-10-23T12:08:54.954Z,13.00
2017-10-23T12:11:23.035Z,13.00
2017-10-23T12:13:51.918Z,13.10
2017-10-23T12:16:20.009Z,13.10
2017-10-23T12:18:48.120Z,13.30
2017-10-23T12:23:45.571Z,13.20
2017-10-23T12:26:13.679Z,13.00
2017-10-23T12:28:43.280Z,13.00
2017-10-23T12:31:11.775Z,13.00
2017-10-23T12:33:40.633Z,12.80
2017-10-23T12:36:08.726Z,13.00
2017-10-23T12:38:36.819Z,13.20
2017-10-23T12:41:06.044Z,13.50
2017-10-23T12:46:04.263Z,15.50
2017-10-23T12:48:32.373Z,15.80
2017-10-23T12:51:01.223Z,15.40
2017-10-23T12:53:30.119Z,14.90
2017-10-23T12:55:58.977Z,14.70
2017-10-23T12:58:27.065Z,14.50
2017-10-23T13:00:55.167Z,14.40
2017-10-23T13:03:23.259Z,14.30
2017-10-23T13:05:53.124Z,14.10
2017-10-23T13:08:21.559Z,14.10
2017-10-23T13:10:51.171Z,14.10
2017-10-23T13:13:20.396Z,13.90
2017-10-23T13:15:49.644Z,14.00
2017-10-23T13:18:17.733Z,13.80
2017-10-23T13:20:46.604Z,13.80
2017-10-23T13:25:44.466Z,13.70
2017-10-23T13:28:12.548Z,13.70
2017-10-23T13:30:40.659Z,13.70
2017-10-23T13:33:09.898Z,13.50
2017-10-23T13:35:37.997Z,13.50
2017-10-23T13:38:06.087Z,13.50
2017-10-23T13:40:34.183Z,13.40
2017-10-23T13:43:02.277Z,13.50
2017-10-23T13:45:30.399Z,13.40
2017-10-23T13:47:58.886Z,13.40
2017-10-23T13:50:26.974Z,13.40
2017-10-23T13:52:55.851Z,13.30
2017-10-23T13:55:23.959Z,13.20
2017-10-23T13:57:52.447Z,13.10
2017-10-23T14:00:20.536Z,13.00
2017-10-23T14:02:49.405Z,13.00
2017-10-23T14:05:18.645Z,13.00
2017-10-23T14:07:46.734Z,13.00
2017-10-23T14:10:14.844Z,12.90
2017-10-23T14:12:43.708Z,13.00
2017-10-23T14:15:12.574Z,12.90
2017-10-23T14:17:40.672Z,12.90
2017-10-23T14:20:09.552Z,12.90
2017-10-23T14:22:39.159Z,12.90
2017-10-23T14:25:07.259Z,12.90
2017-10-23T14:27:36.172Z,12.80
2017-10-23T14:30:04.282Z,12.80
2017-10-23T14:32:32.393Z,12.80
2017-10-23T14:35:00.901Z,12.90
2017-10-23T14:37:29.756Z,12.90
2017-10-23T14:39:58.619Z,12.90
2017-10-23T14:42:26.735Z,12.90
2017-10-23T14:44:54.819Z,12.90
2017-10-23T14:47:22.908Z,12.80
2017-10-23T14:49:51.808Z,12.90
2017-10-23T14:52:20.290Z,12.90
2017-10-23T14:54:48.432Z,12.90
2017-10-23T14:57:16.909Z,12.90
2017-10-23T14:59:45.752Z,12.80
2017-10-23T15:02:13.863Z,12.90
2017-10-23T15:04:43.103Z,12.90
2017-10-23T15:07:11.207Z,12.90
2017-10-23T15:09:39.685Z,13.00
2017-10-23T15:12:07.773Z,12.90
2017-10-23T15:14:35.877Z,13.10
2017-10-23T15:19:33.332Z,13.30
2017-10-23T15:22:02.584Z,13.30
2017-10-23T15:24:30.668Z,13.20
2017-10-23T15:26:58.767Z,13.30
2017-10-23T15:31:56.218Z,13.40
2017-10-23T15:34:25.470Z,13.50
2017-10-23T15:36:54.336Z,13.40
2017-10-23T15:39:23.957Z,13.50
2017-10-23T15:41:52.047Z,13.40
2017-10-23T15:44:20.153Z,13.40
2017-10-23T15:49:17.601Z,13.50
2017-10-23T15:51:45.687Z,13.40
2017-10-23T15:54:13.813Z,13.40
2017-10-23T15:59:11.267Z,13.20
2017-10-23T16:01:39.384Z,13.20
2017-10-23T16:06:37.600Z,13.10
2017-10-23T16:09:06.081Z,13.00
2017-10-23T16:11:34.199Z,12.90
2017-10-23T16:14:03.056Z,12.90
2017-10-23T16:16:31.624Z,12.80
2017-10-23T16:18:59.691Z,12.80
2017-10-23T16:21:28.907Z,12.80
2017-10-23T16:23:57.028Z,12.90
2017-10-23T16:28:54.455Z,12.90
2017-10-23T16:31:22.956Z,12.80
2017-10-23T16:33:52.543Z,12.70
2017-10-23T16:36:21.066Z,12.80
2017-10-23T16:38:49.911Z,12.90
2017-10-23T16:41:18.003Z,12.90
2017-10-23T16:43:46.108Z,13.00
2017-10-23T16:46:14.965Z,13.00
2017-10-23T16:48:43.443Z,13.00
2017-10-23T16:51:11.579Z,12.90
2017-10-23T16:53:39.655Z,12.90
2017-10-23T16:56:07.743Z,12.80
2017-10-23T16:58:35.854Z,12.90
2017-10-23T17:01:05.475Z,12.90
2017-10-23T17:03:35.083Z,12.70
2017-10-23T17:06:04.691Z,12.70
2017-10-23T17:08:33.561Z,12.60
2017-10-23T17:13:31.444Z,12.50
2017-10-23T17:15:59.532Z,12.40
2017-10-23T17:20:56.983Z,12.40
2017-10-23T17:23:25.080Z,12.50
2017-10-23T17:25:53.956Z,12.50
2017-10-23T17:28:22.440Z,12.40
2017-10-23T17:30:51.346Z,12.50
2017-10-23T17:33:19.820Z,12.50
2017-10-23T17:38:17.349Z,12.60
2017-10-23T17:40:46.940Z,12.50
2017-10-23T17:43:15.411Z,12.50
2017-10-23T17:45:43.496Z,12.50
2017-10-23T17:48:11.976Z,12.50
2017-10-23T17:50:40.100Z,12.50
2017-10-23T17:53:08.592Z,12.50
2017-10-23T17:55:37.444Z,12.60
2017-10-23T18:00:34.904Z,12.50
2017-10-23T18:03:03.000Z,12.50
2017-10-23T18:05:31.096Z,12.30
2017-10-23T18:07:59.172Z,12.30
2017-10-23T18:10:28.066Z,12.20
2017-10-23T18:12:56.931Z,12.20
2017-10-23T18:15:25.024Z,12.20
2017-10-23T18:17:53.887Z,12.50
2017-10-23T18:20:22.008Z,12.50
2017-10-23T18:22:50.478Z,12.40
2017-10-23T18:25:19.323Z,12.50
2017-10-23T18:27:47.846Z,12.50
2017-10-23T18:32:45.269Z,12.40
2017-10-23T18:35:13.452Z,12.20
2017-10-23T18:37:41.927Z,12.20
2017-10-23T18:40:10.047Z,12.30
2017-10-23T18:42:38.131Z,12.30
2017-10-23T18:45:06.985Z,12.20
2017-10-23T18:47:35.542Z,12.30
2017-10-23T18:50:03.608Z,12.40
2017-10-23T18:52:32.860Z,12.40
2017-10-23T18:55:01.064Z,12.50
2017-10-23T18:57:29.208Z,12.50
2017-10-23T18:59:57.310Z,12.50
2017-10-23T19:02:25.395Z,12.40
2017-10-23T19:04:53.491Z,12.30
2017-10-23T19:07:21.594Z,12.20
2017-10-23T19:09:49.713Z,12.20
2017-10-23T19:12:18.187Z,12.20
2017-10-23T19:14:46.266Z,12.10
2017-10-23T19:17:14.369Z,12.30
2017-10-23T19:19:42.448Z,12.20
2017-10-23T19:22:10.971Z,12.10
2017-10-23T19:24:39.040Z,12.00
2017-10-23T19:27:07.899Z,12.00
2017-10-23T19:29:35.986Z,11.90
2017-10-23T19:32:04.095Z,11.90
2017-10-23T19:34:32.583Z,11.90
2017-10-23T19:37:00.668Z,11.90
2017-10-23T19:39:28.771Z,11.80
2017-10-23T19:41:56.860Z,11.70
2017-10-23T19:44:24.955Z,11.70
2017-10-23T19:46:53.440Z,11.70
2017-10-23T19:49:22.288Z,11.70
2017-10-23T19:51:50.378Z,11.70
2017-10-23T19:54:18.455Z,11.70
2017-10-23T19:56:47.094Z,11.80
2017-10-23T20:01:44.539Z,11.80
2017-10-23T20:04:14.959Z,11.80
2017-10-23T20:06:43.025Z,11.80
2017-10-23T20:09:11.864Z,11.70
2017-10-23T20:11:40.356Z,11.70
2017-10-23T20:14:08.455Z,11.70
2017-10-23T20:16:36.538Z,11.70
2017-10-23T20:19:05.403Z,11.70
2017-10-23T20:21:33.907Z,11.70
2017-10-23T20:29:01.467Z,11.80
2017-10-23T20:31:29.543Z,11.80
2017-10-23T20:33:57.642Z,11.80
2017-10-23T20:38:55.117Z,11.80
2017-10-23T20:41:23.959Z,11.90
2017-10-23T20:43:52.064Z,11.90
2017-10-23T20:46:20.132Z,11.90
2017-10-23T20:48:48.979Z,11.90
2017-10-23T20:51:17.102Z,11.90
2017-10-23T20:53:45.208Z,11.90
2017-10-23T20:58:43.443Z,11.80
2017-10-23T21:01:11.566Z,11.70
2017-10-23T21:03:39.639Z,11.80
2017-10-23T21:06:09.223Z,11.80
2017-10-23T21:08:37.331Z,11.80
2017-10-23T21:11:05.427Z,11.70
2017-10-23T21:13:34.214Z,11.70
2017-10-23T21:16:02.286Z,11.70
2017-10-23T21:18:30.368Z,11.70
2017-10-23T21:20:58.464Z,11.70
2017-10-23T21:23:26.548Z,11.70
2017-10-23T21:25:55.418Z,11.60
2017-10-23T21:28:23.494Z,11.60
2017-10-23T21:30:51.595Z,11.60
2017-10-23T21:33:20.445Z,11.60
2017-10-23T21:35:48.539Z,11.60
2017-10-23T21:38:16.639Z,11.60
2017-10-23T21:40:45.487Z,11.50
2017-10-23T21:43:13.591Z,11.50
2017-10-23T21:45:42.435Z,11.50
2017-10-23T21:50:40.643Z,11.40
2017-10-23T21:53:08.725Z,11.40
2017-10-23T21:55:36.823Z,11.40
2017-10-23T21:58:05.662Z,11.40
2017-10-23T22:00:33.784Z,11.30
2017-10-23T22:03:03.005Z,11.30
2017-10-23T22:08:01.220Z,11.10
2017-10-23T22:10:29.300Z,11.10
2017-10-23T22:12:57.415Z,11.20
2017-10-23T22:15:25.498Z,11.10
2017-10-23T22:17:54.335Z,11.20
2017-10-23T22:20:23.204Z,11.20
2017-10-23T22:22:51.286Z,11.20
2017-10-23T22:25:19.391Z,11.30
2017-10-23T22:27:47.467Z,11.30
2017-10-23T22:30:15.567Z,11.30
2017-10-23T22:32:44.411Z,11.20
2017-10-23T22:35:12.527Z,11.20
2017-10-23T22:37:41.375Z,11.20
2017-10-23T22:40:09.463Z,11.20
2017-10-23T22:42:38.347Z,11.20
2017-10-23T22:45:06.447Z,11.00
2017-10-23T22:47:35.309Z,11.20
2017-10-23T22:50:03.407Z,11.20
2017-10-23T22:52:31.503Z,11.10
2017-10-23T22:55:00.351Z,11.10
2017-10-23T22:57:28.447Z,11.10
2017-10-23T22:59:56.542Z,11.10
2017-10-23T23:02:24.625Z,11.10
2017-10-23T23:04:53.119Z,11.00
2017-10-23T23:07:21.223Z,10.90
2017-10-23T23:12:19.057Z,10.90
2017-10-23T23:14:48.662Z,10.90
2017-10-23T23:17:17.511Z,11.00
2017-10-23T23:19:45.614Z,11.00
2017-10-23T23:22:14.458Z,10.90
2017-10-23T23:24:42.568Z,10.90
2017-10-23T23:27:11.414Z,10.80
2017-10-23T23:29:39.495Z,10.70
2017-10-23T23:32:07.596Z,10.80
2017-10-23T23:34:35.668Z,10.80
2017-10-23T23:37:03.764Z,10.90
2017-10-23T23:39:32.607Z,10.90
2017-10-23T23:42:00.729Z,10.90
2017-10-23T23:44:29.581Z,10.80
2017-10-23T23:46:57.662Z,11.00
2017-10-23T23:49:25.721Z,11.00
2017-10-23T23:51:53.821Z,11.00
2017-10-23T23:54:23.407Z,11.10
2017-10-23T23:56:51.503Z,11.00
